Time;durP1;ratioP1;P1;durP2;ratioP2;P2;SDS_P1;SDS_P2;PMS_P1;PMS_P2;Temp;Humidity;BMP_temperature;BMP_pressure;BME280_temperature;BME280_humidity;BME280_pressure;Samples;Min_cycle;Max_cycle;Signal;HPM_P1;HPM_P2
2022/06/28 00:00:01;;;;;;;20.98;15.57;;;;;;;19.04;71.91;101543.44;4905717;28;120088;-80
2022/06/28 00:02:26;;;;;;;20.17;15.38;;;;;;;19.04;71.92;101549.00;4916489;28;119782;-80
2022/06/28 00:04:52;;;;;;;18.05;14.45;;;;;;;18.98;71.96;101535.81;4918521;28;120326;-80
2022/06/28 00:07:18;;;;;;;20.35;15.27;;;;;;;18.98;71.85;101535.03;4889834;28;120199;-80
2022/06/28 00:09:44;;;;;;;19.17;14.30;;;;;;;18.98;71.76;101529.47;4897392;28;120093;-80
2022/06/28 00:12:10;;;;;;;17.05;14.50;;;;;;;19.04;71.88;101532.31;4894981;28;121484;-80
2022/06/28 00:17:26;;;;;;;16.38;14.02;;;;;;;19.02;71.58;101530.78;4910940;28;120028;-80
2022/06/28 00:19:52;;;;;;;18.85;16.00;;;;;;;18.98;71.52;101521.91;4913661;28;120849;-80
2022/06/28 00:22:18;;;;;;;22.90;15.52;;;;;;;19.01;71.80;101522.94;4915391;28;120109;-80
2022/06/28 00:24:43;;;;;;;26.73;17.25;;;;;;;19.06;71.65;101529.81;4883741;28;120014;-80
2022/06/28 00:27:09;;;;;;;20.88;15.60;;;;;;;19.07;71.24;101532.09;4916329;28;119991;-80
2022/06/28 00:29:35;;;;;;;23.17;15.80;;;;;;;19.07;71.67;101532.09;4917505;28;120370;-80
2022/06/28 00:32:01;;;;;;;19.38;15.90;;;;;;;18.99;71.64;101520.66;4917996;28;120483;-80
2022/06/28 00:34:27;;;;;;;19.48;15.50;;;;;;;19.07;71.94;101542.44;4917570;28;119850;-80
2022/06/28 00:36:53;;;;;;;19.65;15.15;;;;;;;18.97;71.59;101519.59;4913312;28;120540;-80
2022/06/28 00:39:19;;;;;;;21.70;14.75;;;;;;;19.04;71.69;101535.84;4906391;28;120345;-80
2022/06/28 00:41:45;;;;;;;26.42;14.90;;;;;;;18.86;71.83;101505.56;4900790;28;119857;-80
2022/06/28 00:44:13;;;;;;;26.75;15.38;;;;;;;19.04;71.75;101538.63;4905639;28;119845;-80
2022/06/28 00:46:40;;;;;;;16.70;13.85;;;;;;;19.04;71.81;101529.53;4885123;28;122092;-80
2022/06/28 00:49:06;;;;;;;20.35;14.25;;;;;;;19.02;71.62;101536.34;4885541;28;120346;-80
2022/06/28 00:51:32;;;;;;;15.48;12.55;;;;;;;18.94;71.72;101523.38;4919634;28;120261;-80
2022/06/28 00:53:59;;;;;;;18.30;13.50;;;;;;;19.02;71.77;101533.56;4914872;28;120077;-80
2022/06/28 00:56:25;;;;;;;16.13;12.70;;;;;;;19.00;71.59;101532.53;4898261;28;120442;-80
2022/06/28 00:58:52;;;;;;;19.75;13.15;;;;;;;18.99;71.75;101531.00;4883704;28;123435;-80
2022/06/28 01:01:20;;;;;;;22.05;12.63;;;;;;;19.02;71.39;101530.03;4910033;28;119796;-80
2022/06/28 01:03:46;;;;;;;17.92;13.07;;;;;;;19.01;71.69;101534.81;4915022;28;119854;-80
2022/06/28 01:06:11;;;;;;;16.10;12.70;;;;;;;19.06;71.38;101535.38;4899248;28;122469;-80
2022/06/28 01:08:38;;;;;;;20.90;14.30;;;;;;;19.04;71.41;101535.84;4917597;28;120036;-80
2022/06/28 01:11:19;;;;;;;18.58;14.15;;;;;;;19.00;71.59;101538.84;4914329;28;119940;-80
2022/06/28 01:13:51;;;;;;;24.55;14.95;;;;;;;18.96;71.23;101543.09;4897573;28;123132;-80
2022/06/28 01:16:19;;;;;;;22.02;14.45;;;;;;;19.03;71.61;101553.78;4897077;28;121153;-80
2022/06/28 01:18:46;;;;;;;19.90;14.48;;;;;;;19.01;71.15;101562.63;4901604;28;119969;-80
2022/06/28 01:21:30;;;;;;;21.75;15.50;;;;;;;18.91;71.77;101552.13;4895873;28;120011;-80
2022/06/28 01:23:57;;;;;;;18.23;13.85;;;;;;;19.03;71.43;101564.91;4906883;28;120120;-80
2022/06/28 01:26:36;;;;;;;22.45;15.40;;;;;;;19.03;71.51;101559.34;4900563;28;119709;-80
2022/06/28 01:29:01;;;;;;;21.83;14.68;;;;;;;18.88;71.75;101542.75;4917314;28;119893;-80
2022/06/28 01:31:37;;;;;;;18.48;14.40;;;;;;;19.04;71.55;101560.13;4901856;28;120496;-80
2022/06/28 01:34:04;;;;;;;30.98;16.67;;;;;;;18.99;71.92;101556.03;4898913;28;121489;-80
2022/06/28 01:36:30;;;;;;;20.38;15.02;;;;;;;19.05;71.73;101558.88;4894661;28;119808;-80
2022/06/28 01:38:59;;;;;;;22.55;14.48;;;;;;;18.99;71.72;101548.44;4907357;28;119804;-80
2022/06/28 01:41:33;;;;;;;23.73;16.70;;;;;;;19.01;71.51;101551.50;4912282;28;119753;-80
2022/06/28 01:44:09;;;;;;;21.42;15.50;;;;;;;18.96;71.33;101548.66;4903941;28;119739;-80
2022/06/28 01:46:40;;;;;;;23.58;15.68;;;;;;;18.97;71.34;101550.19;4884454;28;120172;-80
2022/06/28 01:49:11;;;;;;;26.92;16.25;;;;;;;18.98;71.39;101557.28;4901211;28;120269;-80
2022/06/28 01:51:37;;;;;;;20.55;15.30;;;;;;;18.99;70.70;101558.81;4893376;28;120405;-80
2022/06/28 01:54:05;;;;;;;22.02;16.38;;;;;;;18.96;71.25;101557.78;4902737;28;120370;-80
2022/06/28 01:56:44;;;;;;;21.25;16.60;;;;;;;18.92;70.62;101548.84;4904466;28;119692;-80
2022/06/28 01:59:18;;;;;;;25.38;16.95;;;;;;;18.93;71.05;101563.53;4914554;28;120327;-80
2022/06/28 02:01:59;;;;;;;25.08;17.75;;;;;;;18.88;70.97;101559.41;4893211;28;120083;-80
2022/06/28 02:04:31;;;;;;;27.35;17.92;;;;;;;18.90;70.66;101558.94;4876189;28;120202;-80
2022/06/28 02:07:01;;;;;;;27.73;19.27;;;;;;;18.86;70.86;101556.38;4888753;28;122480;-79
2022/06/28 02:09:33;;;;;;;28.50;19.77;;;;;;;18.82;71.05;101550.25;4896903;28;120292;-80
2022/06/28 02:11:58;;;;;;;26.73;18.90;;;;;;;18.85;70.78;101560.41;4884896;28;121772;-79
2022/06/28 02:14:29;;;;;;;25.08;18.77;;;;;;;18.83;70.56;101562.13;4913774;28;119885;-79
2022/06/28 02:16:58;;;;;;;24.20;17.38;;;;;;;18.80;70.79;101563.88;4899063;28;119685;-79
2022/06/28 02:19:25;;;;;;;23.90;18.65;;;;;;;18.80;71.08;101565.91;4918449;28;119997;-79
2022/06/28 02:21:52;;;;;;;22.80;17.25;;;;;;;18.80;71.23;101574.22;4915119;28;120363;-79
2022/06/28 02:24:19;;;;;;;32.47;19.02;;;;;;;18.77;71.31;101559.28;4906201;28;119731;-79
2022/06/28 02:26:46;;;;;;;23.63;16.55;;;;;;;18.79;71.50;101562.34;4900040;28;120400;-79
2022/06/28 02:29:11;;;;;;;28.20;18.55;;;;;;;18.76;71.55;101563.31;4889281;28;119862;-79
2022/06/28 02:31:37;;;;;;;22.90;18.10;;;;;;;18.75;71.58;101563.81;4882440;28;119930;-79
2022/06/28 02:34:04;;;;;;;23.95;17.08;;;;;;;18.72;71.54;101560.00;4898182;28;119920;-80
2022/06/28 02:41:41;;;;;;;27.48;20.08;;;;;;;18.74;71.63;101559.50;4922467;28;119928;-79
2022/06/28 02:44:08;;;;;;;27.00;19.15;;;;;;;18.80;71.62;101577.78;4917051;28;119659;-79
2022/06/28 02:46:34;;;;;;;22.45;18.10;;;;;;;18.79;71.42;101570.69;4880075;28;121553;-79
2022/06/28 02:48:59;;;;;;;34.75;20.20;;;;;;;18.78;71.37;101571.19;4909755;28;119738;-79
2022/06/28 02:51:25;;;;;;;25.98;18.58;;;;;;;18.81;71.49;101573.75;4900624;28;119549;-79
2022/06/28 02:53:54;;;;;;;29.08;19.10;;;;;;;18.76;71.50;101568.13;4895866;28;123048;-79
2022/06/28 02:56:21;;;;;;;29.23;19.67;;;;;;;18.80;71.33;101572.22;4907156;28;119888;-79
2022/06/28 02:58:48;;;;;;;27.97;18.30;;;;;;;18.79;70.79;101579.03;4909072;28;120196;-79
2022/06/28 03:01:14;;;;;;;27.48;19.17;;;;;;;18.79;71.11;101573.47;4897417;28;120964;-79
2022/06/28 03:03:40;;;;;;;27.48;19.90;;;;;;;18.77;70.98;101578.00;4903338;28;119961;-79
2022/06/28 03:06:07;;;;;;;30.73;19.23;;;;;;;18.73;71.17;101577.44;4882096;28;121185;-79
2022/06/28 03:08:33;;;;;;;24.90;18.08;;;;;;;18.70;71.10;101577.16;4883670;28;119794;-79
2022/06/28 03:11:00;;;;;;;23.50;17.05;;;;;;;18.72;71.04;101585.00;4915801;28;120090;-79
2022/06/28 03:13:26;;;;;;;24.20;17.00;;;;;;;18.73;70.69;101592.09;4906014;28;120323;-79
2022/06/28 03:15:52;;;;;;;21.70;16.08;;;;;;;18.68;70.70;101587.22;4915783;28;120371;-79
2022/06/28 03:18:18;;;;;;;19.98;16.45;;;;;;;18.69;70.44;101592.31;4883640;28;120589;-79
2022/06/28 03:20:44;;;;;;;19.75;15.52;;;;;;;18.61;70.62;101584.81;4914292;28;119361;-79
2022/06/28 03:23:10;;;;;;;17.25;14.68;;;;;;;18.58;70.25;101583.78;4883763;28;119734;-79
2022/06/28 03:25:37;;;;;;;18.65;13.82;;;;;;;18.60;70.15;101592.38;4918931;28;119437;-79
2022/06/28 03:28:04;;;;;;;22.92;15.77;;;;;;;18.59;70.53;101590.09;4915553;28;119731;-79
2022/06/28 03:30:34;;;;;;;18.92;14.00;;;;;;;18.60;70.46;101599.97;4892431;28;120231;-79
2022/06/28 03:33:00;;;;;;;19.63;15.35;;;;;;;18.57;70.52;101596.13;4895092;28;119467;-79
2022/06/28 03:35:30;;;;;;;15.85;14.00;;;;;;;18.53;70.46;101600.38;4916100;28;119491;-79
2022/06/28 03:37:57;;;;;;;22.45;14.57;;;;;;;18.53;70.49;101606.69;4873015;28;119784;-79
2022/06/28 03:40:35;;;;;;;16.88;13.55;;;;;;;18.54;70.41;101611.00;4911833;28;120892;-80
2022/06/28 03:43:01;;;;;;;15.05;12.88;;;;;;;18.56;70.50;101607.75;4915376;28;119666;-79
2022/06/28 03:45:27;;;;;;;22.42;13.68;;;;;;;18.54;70.31;101613.00;4901143;28;119645;-79
2022/06/28 03:48:21;;;;;;;17.85;14.13;;;;;;;18.38;70.22;101595.59;4902683;28;119975;-79
2022/06/28 03:51:10;;;;;;;21.25;14.77;;;;;;;18.49;70.25;101610.94;4910842;28;119845;-79
2022/06/28 03:54:13;;;;;;;18.58;13.95;;;;;;;18.43;70.15;101610.81;4889327;28;119744;-79
2022/06/28 03:56:45;;;;;;;19.65;15.10;;;;;;;18.39;70.08;101615.81;4915540;28;119617;-79
2022/06/28 03:59:23;;;;;;;20.27;15.95;;;;;;;18.44;70.06;101625.47;4897629;28;120125;-79
2022/06/28 04:01:49;;;;;;;20.25;15.85;;;;;;;18.41;70.03;101618.88;4914604;28;119715;-79
2022/06/28 04:04:23;;;;;;;18.30;14.93;;;;;;;18.40;69.90;101626.44;4897227;28;119847;-79
2022/06/28 04:06:49;;;;;;;26.88;18.15;;;;;;;18.37;70.26;101630.19;4895948;28;119567;-79
2022/06/28 04:09:17;;;;;;;20.55;15.85;;;;;;;18.38;70.36;101633.72;4898020;28;119606;-79
2022/06/28 04:11:46;;;;;;;25.10;16.98;;;;;;;18.36;70.34;101633.44;4907877;28;121644;-79
2022/06/28 04:14:13;;;;;;;23.25;16.63;;;;;;;18.32;70.01;101627.31;4890475;28;120952;-79
2022/06/28 04:16:41;;;;;;;18.33;15.98;;;;;;;18.31;70.09;101640.44;4913707;28;119534;-79
2022/06/28 04:19:08;;;;;;;19.73;15.70;;;;;;;18.30;69.90;101638.94;4897774;28;120196;-79
2022/06/28 04:21:44;;;;;;;23.33;16.65;;;;;;;18.29;70.18;101645.72;4894094;28;122731;-79
2022/06/28 04:24:15;;;;;;;23.52;17.55;;;;;;;18.30;70.56;101640.94;4882900;28;119694;-79
2022/06/28 04:26:58;;;;;;;22.17;16.95;;;;;;;18.30;70.57;101647.25;4912598;28;119605;-79
2022/06/28 04:29:27;;;;;;;22.17;16.00;;;;;;;18.30;70.61;101655.59;4914679;28;120225;-79
2022/06/28 04:31:53;;;;;;;22.83;16.05;;;;;;;18.33;70.59;101654.63;4900269;28;120074;-79
2022/06/28 04:34:19;;;;;;;18.77;14.60;;;;;;;18.32;70.64;101655.88;4897777;28;119677;-79
2022/06/28 04:36:49;;;;;;;16.60;14.38;;;;;;;18.41;70.76;101669.63;4884885;28;119602;-79
2022/06/28 04:39:15;;;;;;;19.58;15.57;;;;;;;18.46;70.79;101668.22;4881924;28;121403;-79
2022/06/28 04:41:48;;;;;;;26.23;18.90;;;;;;;18.53;71.11;101672.59;4896848;28;122079;-79
2022/06/28 04:44:17;;;;;;;20.92;17.23;;;;;;;18.56;71.70;101679.97;4899746;28;119484;-79
2022/06/28 04:46:49;;;;;;;25.85;17.38;;;;;;;18.55;72.02;101661.78;4901652;28;120419;-79
2022/06/28 04:49:19;;;;;;;19.92;15.07;;;;;;;18.65;71.96;101674.31;4901090;28;121613;-80
2022/06/28 04:51:49;;;;;;;21.17;16.83;;;;;;;18.68;71.89;101665.00;4885094;28;119670;-79
2022/06/28 04:54:24;;;;;;;24.33;17.42;;;;;;;18.73;72.32;101671.94;4904615;28;119752;-79
2022/06/28 04:57:31;;;;;;;22.45;16.08;;;;;;;18.82;72.25;101677.34;4918381;28;119827;-79
2022/06/28 05:00:10;;;;;;;21.80;16.23;;;;;;;18.86;72.20;101680.69;4901603;28;121930;-79
2022/06/28 05:02:41;;;;;;;20.10;16.40;;;;;;;18.86;71.85;101673.13;4912034;28;119758;-79
2022/06/28 05:05:17;;;;;;;21.25;17.55;;;;;;;18.82;71.82;101669.03;4893764;28;119735;-79
2022/06/28 05:07:43;;;;;;;22.15;16.38;;;;;;;18.84;71.61;101664.50;4902059;28;120531;-79
2022/06/28 05:10:16;;;;;;;20.02;16.63;;;;;;;18.88;71.69;101673.41;4917478;28;119670;-79
2022/06/28 05:12:51;;;;;;;23.23;17.92;;;;;;;18.93;71.90;101672.72;4894365;28;119840;-80
2022/06/28 05:15:50;;;;;;;21.92;17.35;;;;;;;19.01;72.23;101686.97;4904965;28;119794;-79
2022/06/28 05:18:16;;;;;;;32.75;20.67;;;;;;;19.02;72.81;101686.50;4894945;28;119877;-79
2022/06/28 05:20:41;;;;;;;26.58;18.90;;;;;;;19.13;72.58;101688.66;4890984;28;121043;-79
2022/06/28 05:23:08;;;;;;;24.42;18.98;;;;;;;19.18;72.46;101698.34;4882915;28;119935;-79
2022/06/28 05:25:54;;;;;;;25.33;19.67;;;;;;;19.19;72.36;101683.94;4864668;28;119153;-80
2022/06/28 05:28:20;;;;;;;30.27;22.30;;;;;;;19.23;72.43;101680.94;4916885;28;119936;-79
2022/06/28 05:30:46;;;;;;;25.63;21.05;;;;;;;19.27;72.35;101675.94;4899201;28;120029;-79
2022/06/28 05:33:12;;;;;;;28.13;20.73;;;;;;;19.22;72.29;101671.06;4885492;28;119774;-79
2022/06/28 05:35:47;;;;;;;21.65;18.70;;;;;;;19.26;71.90;101672.38;4900967;28;121261;-79
2022/06/28 05:38:13;;;;;;;25.80;20.00;;;;;;;19.32;71.95;101664.09;4913863;28;120076;-79
2022/06/28 05:40:39;;;;;;;20.95;18.67;;;;;;;19.36;72.23;101669.47;4920387;28;120525;-79
2022/06/28 05:43:06;;;;;;;27.35;19.15;;;;;;;19.45;72.65;101680.47;4882716;28;120035;-79
2022/06/28 05:45:31;;;;;;;27.75;18.25;;;;;;;19.49;72.80;101675.44;4916242;28;120286;-79
2022/06/28 05:47:57;;;;;;;25.38;19.77;;;;;;;19.55;72.50;101670.72;4912169;28;120453;-79
2022/06/28 05:50:25;;;;;;;26.55;17.35;;;;;;;19.63;72.66;101671.81;4909217;28;120245;-79
2022/06/28 05:52:52;;;;;;;24.33;17.95;;;;;;;19.70;72.63;101673.44;4901783;28;120438;-79
2022/06/28 05:55:18;;;;;;;23.58;19.23;;;;;;;19.72;72.33;101682.81;4914424;28;120513;-79
2022/06/28 05:57:44;;;;;;;27.20;18.70;;;;;;;19.72;72.50;101670.91;4880771;28;121617;-79
2022/06/28 06:00:10;;;;;;;24.30;19.08;;;;;;;19.79;72.57;101678.81;4896557;28;120749;-80
2022/06/28 06:02:42;;;;;;;27.77;18.25;;;;;;;19.84;72.89;101670.53;4910994;28;120785;-80
2022/06/28 06:05:08;;;;;;;31.67;21.20;;;;;;;19.88;73.09;101671.09;4897265;28;121319;-80
2022/06/28 06:07:34;;;;;;;20.77;17.70;;;;;;;20.00;73.00;101682.31;4895732;28;121177;-80
2022/06/28 06:10:02;;;;;;;44.20;19.70;;;;;;;20.02;72.85;101686.16;4914159;28;121395;-80
2022/06/28 06:12:29;;;;;;;23.67;18.65;;;;;;;20.13;72.69;101679.94;4904787;28;121302;-79
2022/06/28 06:14:55;;;;;;;25.25;19.85;;;;;;;20.12;72.69;101667.25;4898918;28;120864;-79
2022/06/28 06:17:21;;;;;;;26.17;20.80;;;;;;;20.12;72.74;101667.25;4881635;28;122043;-80
2022/06/28 06:19:47;;;;;;;29.25;20.85;;;;;;;20.23;72.34;101689.63;4886973;28;120980;-80
2022/06/28 06:22:13;;;;;;;28.27;20.13;;;;;;;20.25;72.35;101678.75;4886756;28;122104;-80
2022/06/28 06:24:39;;;;;;;30.08;20.75;;;;;;;20.25;72.53;101687.09;4909922;28;121047;-80
2022/06/28 06:27:08;;;;;;;29.02;20.63;;;;;;;20.27;72.47;101681.81;4897157;28;122280;-79
2022/06/28 06:29:35;;;;;;;27.75;20.42;;;;;;;20.27;72.42;101670.66;4896857;28;121588;-79
2022/06/28 06:32:02;;;;;;;29.70;22.98;;;;;;;20.34;72.92;101688.94;4915755;28;121002;-80
2022/06/28 06:34:47;;;;;;;29.38;21.98;;;;;;;20.33;72.96;101679.06;4916075;28;121956;-79
2022/06/28 06:37:13;;;;;;;33.17;24.67;;;;;;;20.35;72.87;101679.34;4912821;28;121767;-79
2022/06/28 06:39:40;;;;;;;25.65;21.40;;;;;;;20.38;73.03;101681.91;4886792;28;121519;-80
2022/06/28 06:42:23;;;;;;;29.73;17.60;;;;;;;20.32;72.49;101674.75;4886391;28;121673;-79
2022/06/28 06:44:52;;;;;;;22.67;14.73;;;;;;;20.34;72.05;101684.13;4896282;28;120968;-79
2022/06/28 06:47:18;;;;;;;16.42;14.48;;;;;;;20.29;72.06;101689.66;4891058;28;121282;-79
2022/06/28 06:49:44;;;;;;;19.33;12.88;;;;;;;20.26;72.07;101683.06;4904207;28;121220;-79
2022/06/28 06:52:10;;;;;;;18.63;12.50;;;;;;;20.35;71.79;101702.41;4883555;28;121141;-79
2022/06/28 06:54:40;;;;;;;18.00;11.63;;;;;;;20.36;71.83;101697.59;4907838;28;121846;-80
2022/06/28 06:57:07;;;;;;;15.82;12.77;;;;;;;20.37;71.68;101699.88;4907691;28;124407;-80
2022/06/28 06:59:33;;;;;;;14.70;12.80;;;;;;;20.40;71.80;101706.50;4894522;28;121098;-79
2022/06/28 07:01:59;;;;;;;16.73;10.77;;;;;;;20.35;71.94;101690.50;4893254;28;121410;-80
2022/06/28 07:04:30;;;;;;;16.60;11.30;;;;;;;20.44;71.75;101707.81;4894126;28;121937;-79
2022/06/28 07:06:56;;;;;;;26.42;11.23;;;;;;;20.39;71.79;101691.03;4910407;28;121245;-80
2022/06/28 07:09:25;;;;;;;14.00;11.25;;;;;;;20.51;71.51;101718.50;4897147;28;122797;-79
2022/06/28 07:11:51;;;;;;;17.67;11.45;;;;;;;20.52;71.70;101713.69;4913405;28;121543;-80
2022/06/28 07:14:17;;;;;;;17.08;11.57;;;;;;;20.51;71.01;101714.97;4920469;28;121280;-79
2022/06/28 07:16:44;;;;;;;12.65;10.85;;;;;;;20.46;71.14;101707.31;4912179;28;121862;-79
2022/06/28 07:19:14;;;;;;;15.07;11.45;;;;;;;20.54;71.50;101717.50;4908902;28;121654;-80
2022/06/28 07:21:40;;;;;;;15.70;11.20;;;;;;;20.51;71.47;101712.19;4902893;28;121531;-80
2022/06/28 07:24:08;;;;;;;15.82;10.85;;;;;;;20.60;71.56;101719.59;4903035;28;121133;-80
2022/06/28 07:26:35;;;;;;;13.02;9.82;;;;;;;20.59;71.18;101721.63;4903249;28;121692;-79
2022/06/28 07:29:12;;;;;;;12.00;10.77;;;;;;;20.60;71.41;101719.59;4885596;28;121629;-80
2022/06/28 07:31:39;;;;;;;17.27;11.30;;;;;;;20.59;71.28;101718.09;4891324;28;121483;-80
2022/06/28 07:34:05;;;;;;;18.67;12.75;;;;;;;20.54;71.47;101716.75;4911462;28;122114;-80
2022/06/28 07:36:32;;;;;;;20.08;11.23;;;;;;;20.64;71.34;101720.91;4908495;28;122247;-79
2022/06/28 07:38:58;;;;;;;13.68;10.07;;;;;;;20.66;71.56;101714.81;4892619;28;121459;-79
2022/06/28 07:41:23;;;;;;;14.55;10.02;;;;;;;20.65;71.56;101716.84;4908542;28;121422;-80
2022/06/28 07:44:36;;;;;;;15.18;10.68;;;;;;;20.70;71.01;101721.69;4907226;28;122477;-79
2022/06/28 07:47:02;;;;;;;15.52;10.38;;;;;;;20.68;71.42;101723.47;4894844;28;122069;-80
2022/06/28 07:52:33;;;;;;;13.25;11.32;;;;;;;20.75;71.82;101723.75;4894141;28;121561;-80
2022/06/28 07:55:03;;;;;;;15.63;11.65;;;;;;;20.90;71.32;101725.63;4893658;28;124411;-80
2022/06/28 07:57:42;;;;;;;15.63;8.23;;;;;;;20.90;70.94;101715.25;4894452;28;123240;-80
2022/06/28 08:00:11;;;;;;;13.63;7.97;;;;;;;20.97;70.54;101725.94;4913067;28;122242;-80
2022/06/28 08:02:44;;;;;;;11.27;8.32;;;;;;;20.99;70.85;101733.78;4911811;28;121940;-79
2022/06/28 08:05:11;;;;;;;12.27;7.55;;;;;;;21.09;71.50;101723.97;4896194;28;121859;-80
2022/06/28 08:07:57;;;;;;;13.68;8.43;;;;;;;21.17;71.50;101725.03;4891536;28;121759;-80
2022/06/28 08:10:28;;;;;;;11.40;6.80;;;;;;;21.34;71.57;101725.16;4898062;28;122717;-80
2022/06/28 08:12:55;;;;;;;11.35;7.32;;;;;;;21.44;71.07;101724.41;4904874;28;121592;-80
2022/06/28 08:15:21;;;;;;;9.30;5.63;;;;;;;21.48;70.45;101710.22;4900157;28;122139;-80
2022/06/28 08:17:47;;;;;;;7.93;5.43;;;;;;;21.62;69.97;101716.88;4910555;28;121853;-80
2022/06/28 08:20:14;;;;;;;10.27;5.60;;;;;;;21.67;69.68;101716.13;4899817;28;121879;-79
2022/06/28 08:22:40;;;;;;;10.57;5.13;;;;;;;21.70;69.39;101709.53;4898411;28;122019;-79
2022/06/28 08:25:06;;;;;;;13.88;5.55;;;;;;;21.78;68.32;101712.63;4910766;28;121928;-81
2022/06/28 08:27:32;;;;;;;13.93;5.30;;;;;;;21.83;68.84;101712.63;4899770;28;121559;-81
2022/06/28 08:29:58;;;;;;;10.73;5.40;;;;;;;21.95;68.75;101718.97;4879344;28;121983;-80
2022/06/28 08:32:25;;;;;;;9.73;4.57;;;;;;;22.08;68.44;101724.13;4893265;28;125624;-81
2022/06/28 08:34:52;;;;;;;8.40;4.13;;;;;;;22.17;68.27;101719.03;4919245;28;122333;-81
2022/06/28 08:37:18;;;;;;;5.13;3.53;;;;;;;22.20;66.45;101726.41;4913738;28;121882;-81
2022/06/28 08:40:17;;;;;;;8.48;3.80;;;;;;;22.12;66.55;101721.84;4885143;28;121717;-81
2022/06/28 08:42:51;;;;;;;7.22;3.22;;;;;;;22.09;66.20;101728.44;4893176;28;121917;-80
2022/06/28 08:45:17;;;;;;;9.70;3.65;;;;;;;21.98;66.69;101715.19;4895575;28;121757;-81
2022/06/28 08:47:46;;;;;;;8.35;3.10;;;;;;;22.14;66.45;101734.03;4894345;28;122202;-80
2022/06/28 08:50:28;;;;;;;4.47;2.78;;;;;;;22.17;65.98;101735.06;4911744;28;121502;-80
2022/06/28 08:52:56;;;;;;;6.72;2.38;;;;;;;22.23;65.53;101736.56;4914723;28;122120;-81
2022/06/28 08:55:22;;;;;;;4.57;2.53;;;;;;;22.25;66.37;101730.50;4910445;28;122139;-81
2022/06/28 08:57:48;;;;;;;10.23;2.80;;;;;;;22.27;64.99;101734.31;4915467;28;121536;-80
2022/06/28 09:00:14;;;;;;;7.10;2.45;;;;;;;22.38;64.14;101744.72;4909566;28;122008;-81
2022/06/28 09:02:40;;;;;;;13.13;3.30;;;;;;;22.40;64.20;101733.78;4899083;28;121827;-81
2022/06/28 09:05:06;;;;;;;9.88;3.15;;;;;;;22.43;64.10;101735.56;4881379;28;124427;-81
2022/06/28 09:07:32;;;;;;;5.20;3.13;;;;;;;22.49;65.36;101730.75;4905509;28;122378;-81
2022/06/28 09:09:58;;;;;;;7.55;3.05;;;;;;;22.59;65.55;101737.63;4908581;28;122101;-81
2022/06/28 09:12:24;;;;;;;24.70;3.78;;;;;;;22.60;63.25;101744.72;4905224;28;122428;-81
2022/06/28 09:14:49;;;;;;;5.72;2.72;;;;;;;22.50;63.36;101734.31;4913110;28;121809;-81
2022/06/28 09:17:22;;;;;;;5.38;2.30;;;;;;;22.51;62.22;101747.78;4910427;28;121857;-81
2022/06/28 09:19:53;;;;;;;5.18;2.95;;;;;;;22.42;63.56;101736.09;4892434;28;122848;-81
2022/06/28 09:22:34;;;;;;;6.68;2.65;;;;;;;22.47;63.19;101747.25;4904457;28;121891;-81
2022/06/28 09:25:03;;;;;;;5.50;2.40;;;;;;;22.51;63.51;101745.00;4905071;28;122529;-81
2022/06/28 09:27:31;;;;;;;4.18;2.63;;;;;;;22.56;63.09;101749.81;4905490;28;122135;-81
2022/06/28 09:29:59;;;;;;;4.43;2.20;;;;;;;22.54;62.20;101737.63;4907660;28;122198;-81
2022/06/28 09:32:33;;;;;;;5.15;2.47;;;;;;;22.64;62.61;101745.22;4900447;28;123249;-81
2022/06/28 09:35:05;;;;;;;4.75;1.95;;;;;;;22.65;62.47;101732.78;4899993;28;122076;-81
2022/06/28 09:37:39;;;;;;;6.35;2.10;;;;;;;22.75;62.60;101738.88;4906422;28;122673;-80
2022/06/28 09:40:18;;;;;;;4.50;1.95;;;;;;;22.83;62.32;101741.94;4904956;28;122434;-80
2022/06/28 09:42:46;;;;;;;5.10;2.05;;;;;;;22.89;61.95;101737.09;4894221;28;122547;-80
2022/06/28 09:45:14;;;;;;;5.38;2.05;;;;;;;22.95;61.71;101729.47;4903568;28;123922;-80
2022/06/28 09:47:48;;;;;;;5.43;2.05;;;;;;;23.01;60.43;101743.44;4904222;28;121892;-80
2022/06/28 09:50:19;;;;;;;4.88;1.80;;;;;;;22.95;59.89;101730.22;4886496;28;122806;-80
2022/06/28 09:52:46;;;;;;;3.35;1.63;;;;;;;22.95;60.72;101746.25;4902837;28;121880;-80
2022/06/28 09:55:16;;;;;;;5.63;2.00;;;;;;;22.94;60.18;101744.72;4902780;28;122149;-80
2022/06/28 09:57:45;;;;;;;6.25;2.08;;;;;;;23.01;61.13;101757.44;4903828;28;122452;-80
2022/06/28 10:00:13;;;;;;;12.88;1.88;;;;;;;22.98;60.07;101750.81;4903145;28;121961;-80
2022/06/28 10:02:41;;;;;;;6.57;2.17;;;;;;;23.01;59.96;101758.19;4904233;28;121886;-80
2022/06/28 10:05:07;;;;;;;3.85;1.70;;;;;;;23.02;60.27;101742.16;4909023;28;121724;-80
2022/06/28 10:07:34;;;;;;;5.53;1.67;;;;;;;23.02;59.86;101751.31;4904928;28;122353;-80
2022/06/28 10:10:01;;;;;;;3.35;1.88;;;;;;;23.07;59.03;101749.78;4905959;28;122518;-80
2022/06/28 10:15:20;;;;;;;4.55;1.73;;;;;;;23.03;59.50;101724.09;4891550;28;122362;-80
2022/06/28 10:17:51;;;;;;;5.00;1.60;;;;;;;23.12;58.49;101744.16;4889551;28;122040;-80
2022/06/28 10:20:22;;;;;;;7.00;1.70;;;;;;;23.11;58.84;101734.25;4903141;28;122714;-80
2022/06/28 10:22:48;;;;;;;7.15;1.77;;;;;;;23.16;57.09;101738.28;4905196;28;121913;-80
2022/06/28 10:25:22;;;;;;;5.72;1.65;;;;;;;23.20;58.66;101739.56;4906530;28;122197;-81
2022/06/28 10:27:50;;;;;;;6.53;1.92;;;;;;;23.25;59.38;101750.00;4904002;28;121923;-81
2022/06/28 10:30:22;;;;;;;3.85;2.00;;;;;;;23.26;58.38;101743.13;4888643;28;121918;-81
2022/06/28 10:33:18;;;;;;;5.15;1.88;;;;;;;23.26;57.31;101740.31;4893452;28;123191;-81
2022/06/28 10:35:54;;;;;;;6.28;1.80;;;;;;;23.27;56.92;101746.69;4908993;28;122274;-81
2022/06/28 10:38:20;;;;;;;4.40;1.75;;;;;;;23.26;57.11;101747.94;4894499;28;121751;-81
2022/06/28 10:40:49;;;;;;;5.03;1.95;;;;;;;23.24;57.42;101745.66;4905317;28;123048;-81
2022/06/28 10:43:33;;;;;;;5.30;2.08;;;;;;;23.21;57.65;101746.69;4883458;28;122011;-81
2022/06/28 10:46:25;;;;;;;5.43;1.90;;;;;;;23.17;57.92;101739.81;4885633;28;122309;-81
2022/06/28 10:48:51;;;;;;;4.88;2.10;;;;;;;23.12;57.54;101743.41;4898368;28;121597;-81
2022/06/28 10:51:19;;;;;;;7.80;2.30;;;;;;;23.05;57.50;101744.69;4897651;28;122002;-81
2022/06/28 10:53:57;;;;;;;4.95;2.10;;;;;;;22.98;58.37;101753.63;4914756;28;121963;-81
2022/06/28 10:56:46;;;;;;;4.97;2.10;;;;;;;22.88;59.52;101744.72;4888039;28;122274;-81
2022/06/28 10:59:15;;;;;;;4.95;2.00;;;;;;;22.88;59.40;101749.56;4897213;28;123919;-80
2022/06/28 11:01:41;;;;;;;3.67;1.85;;;;;;;22.88;57.51;101735.56;4912230;28;122773;-81
2022/06/28 11:04:11;;;;;;;7.25;1.90;;;;;;;22.86;58.26;101743.72;4897730;28;121913;-81
2022/06/28 11:06:51;;;;;;;9.38;2.00;;;;;;;22.86;57.80;101747.28;4909086;28;122237;-81
2022/06/28 11:09:25;;;;;;;11.55;2.75;;;;;;;22.87;57.65;101750.84;4911123;28;121909;-80
2022/06/28 11:12:08;;;;;;;8.18;2.03;;;;;;;22.85;58.41;101750.59;4917791;28;121896;-80
2022/06/28 11:14:55;;;;;;;7.15;2.17;;;;;;;22.77;57.50;101741.16;4898082;28;122383;-80
2022/06/28 11:17:32;;;;;;;7.35;1.98;;;;;;;22.78;57.82;101742.69;4891404;28;122571;-81
2022/06/28 11:20:03;;;;;;;7.53;1.77;;;;;;;22.73;56.55;101735.06;4911813;28;122214;-81
2022/06/28 11:22:31;;;;;;;3.58;1.77;;;;;;;22.79;56.92;101755.41;4910924;28;121885;-80
2022/06/28 11:25:00;;;;;;;3.80;1.80;;;;;;;22.81;56.53;101752.84;4891454;28;121933;-80
2022/06/28 11:27:26;;;;;;;6.13;1.90;;;;;;;22.87;56.83;101750.84;4911073;28;122193;-80
2022/06/28 11:30:03;;;;;;;6.82;1.90;;;;;;;22.90;55.92;101755.41;4910229;28;121857;-80
2022/06/28 11:32:30;;;;;;;8.20;2.20;;;;;;;22.92;55.94;101748.00;4910568;28;121955;-80